createdAt,value
2022-09-28T13:00:35.949Z,97733.66
2022-09-28T13:03:57.973Z,97721.88
2022-09-28T13:06:40.038Z,97723.53
2022-09-28T13:09:23.404Z,97725.44
2022-09-28T13:12:03.155Z,97721.28
2022-09-28T13:15:13.459Z,97723.09
2022-09-28T13:17:51.750Z,97720.06
2022-09-28T13:20:35.831Z,97713.03
2022-09-28T13:23:27.699Z,97722.66
2022-09-28T13:26:03.386Z,97723.22
2022-09-28T13:28:34.345Z,97730.91
2022-09-28T13:31:04.853Z,97729.69
2022-09-28T13:33:36.855Z,97723.69
2022-09-28T13:36:41.061Z,97728.75
2022-09-28T13:39:38.533Z,97731.25
2022-09-28T13:42:10.156Z,97736.31
2022-09-28T13:45:11.648Z,97737.44
2022-09-28T13:48:00.901Z,97739.31
2022-09-28T13:50:42.206Z,97729.59
2022-09-28T13:53:20.515Z,97733.91
2022-09-28T13:55:59.700Z,97741.81
2022-09-28T13:58:31.839Z,97743.13
2022-09-28T14:01:05.628Z,97742.03
2022-09-28T14:04:00.946Z,97746.97
2022-09-28T14:06:33.119Z,97754.38
2022-09-28T14:09:32.114Z,97762.81
2022-09-28T14:12:03.635Z,97754.63
2022-09-28T14:14:55.618Z,97739.69
2022-09-28T14:17:55.662Z,97748.38
2022-09-28T14:20:27.605Z,97754.94
2022-09-28T14:23:22.250Z,97755.53
2022-09-28T14:26:15.972Z,97754.47
2022-09-28T14:28:57.287Z,97761.78
2022-09-28T14:31:32.626Z,97765.19
2022-09-28T14:34:03.904Z,97774.44
2022-09-28T14:36:58.209Z,97772.34
2022-09-28T14:39:47.919Z,97768.56
2022-09-28T14:42:24.930Z,97764.81
2022-09-28T14:45:35.801Z,97762.13
2022-09-28T14:48:33.764Z,97768.09
2022-09-28T14:52:02.645Z,97766.56
2022-09-28T14:54:56.787Z,97760.59
2022-09-28T14:57:41.540Z,97763.63
2022-09-28T15:00:25.650Z,97786.38
2022-09-28T15:03:12.012Z,97781.81
2022-09-28T15:05:58.306Z,97778.38
2022-09-28T15:08:40.561Z,97782.19
2022-09-28T15:11:35.928Z,97791.94
2022-09-28T15:14:21.142Z,97793.22
2022-09-28T15:16:51.933Z,97794.97
2022-09-28T15:19:28.238Z,97814.09
2022-09-28T15:22:01.733Z,97811.22
2022-09-28T15:24:35.130Z,97813.81
2022-09-28T15:27:13.947Z,97807.13
2022-09-28T15:30:01.792Z,97813.69
2022-09-28T15:32:34.648Z,97824.84
2022-09-28T15:35:16.651Z,97822.16
2022-09-28T15:37:45.363Z,97825.47
2022-09-28T15:40:22.855Z,97829.22
2022-09-28T15:42:58.455Z,97831.09
2022-09-28T15:45:37.570Z,97830.69
2022-09-28T15:48:23.311Z,97826.38
2022-09-28T15:51:05.476Z,97831.00
2022-09-28T15:53:42.838Z,97829.88
2022-09-28T15:56:20.963Z,97830.91
2022-09-28T15:59:16.641Z,97826.00
2022-09-28T16:01:54.803Z,97828.19
2022-09-28T16:04:44.789Z,97836.81
2022-09-28T16:07:33.654Z,97835.84
2022-09-28T16:10:10.341Z,97843.16
2022-09-28T16:12:50.326Z,97842.56
2022-09-28T16:15:21.912Z,97858.28
2022-09-28T16:17:56.026Z,97843.00
2022-09-28T16:20:29.635Z,97848.84
2022-09-28T16:23:05.648Z,97850.41
2022-09-28T16:25:47.333Z,97852.44
2022-09-28T16:28:41.595Z,97855.28
2022-09-28T16:31:28.562Z,97865.00
2022-09-28T16:34:33.138Z,97877.81
2022-09-28T16:37:03.971Z,97881.00
2022-09-28T16:39:32.903Z,97875.41
2022-09-28T16:42:08.304Z,97878.47
2022-09-28T16:44:38.537Z,97881.22
2022-09-28T16:47:10.109Z,97894.97
2022-09-28T16:49:42.589Z,97894.25
2022-09-28T16:52:35.520Z,97893.19
2022-09-28T16:55:39.581Z,97894.03
2022-09-28T16:58:13.636Z,97894.31
2022-09-28T17:00:56.630Z,97891.28
2022-09-28T17:03:30.975Z,97893.72
2022-09-28T17:06:12.997Z,97891.47
2022-09-28T17:08:44.782Z,97898.66
2022-09-28T17:11:25.114Z,97896.53
2022-09-28T17:13:59.246Z,97895.75
2022-09-28T17:17:06.206Z,97892.56
2022-09-28T17:19:32.272Z,97889.06
2022-09-28T17:22:04.138Z,97891.13
2022-09-28T17:24:37.632Z,97900.78
2022-09-28T17:27:15.251Z,97902.63
2022-09-28T17:29:44.913Z,97909.50
2022-09-28T17:32:22.072Z,97908.03
2022-09-28T17:35:19.862Z,97915.72
2022-09-28T17:37:58.320Z,97897.47
2022-09-28T17:40:29.315Z,97908.31
2022-09-28T17:43:00.585Z,97901.03
2022-09-28T17:45:39.731Z,97914.06
2022-09-28T17:48:18.526Z,97907.13
2022-09-28T17:50:58.603Z,97908.97
2022-09-28T17:53:43.473Z,97908.16
2022-09-28T17:56:15.192Z,97905.22
2022-09-28T17:58:50.974Z,97913.81
2022-09-28T18:01:24.985Z,97919.38
2022-09-28T18:04:01.118Z,97918.75
2022-09-28T18:06:36.722Z,97937.84
2022-09-28T18:09:13.828Z,97922.94
2022-09-28T18:11:48.436Z,97921.00
2022-09-28T18:14:33.907Z,97925.94
2022-09-28T18:17:07.992Z,97925.03
2022-09-28T18:19:36.503Z,97933.28
2022-09-28T18:22:10.641Z,97926.47
2022-09-28T18:24:51.701Z,97931.84
2022-09-28T18:27:25.100Z,97926.31
2022-09-28T18:29:57.130Z,97926.09
2022-09-28T18:32:28.461Z,97926.47
2022-09-28T18:34:57.157Z,97927.44
2022-09-28T18:37:29.347Z,97930.56
2022-09-28T18:39:59.911Z,97929.81
2022-09-28T18:42:31.681Z,97933.50
2022-09-28T18:45:05.657Z,97943.66
2022-09-28T18:47:37.218Z,97947.13
2022-09-28T18:50:08.376Z,97947.59
2022-09-28T18:52:40.675Z,97946.34
2022-09-28T18:55:23.285Z,97948.28
2022-09-28T18:58:03.566Z,97947.91
2022-09-28T19:00:34.183Z,97955.72
2022-09-28T19:03:05.618Z,97954.66
2022-09-28T19:05:39.522Z,97952.06
2022-09-28T19:08:11.357Z,97958.66
2022-09-28T19:10:51.141Z,97956.56
2022-09-28T19:13:30.201Z,97961.72
2022-09-28T19:16:05.351Z,97956.41
2022-09-28T19:18:35.002Z,97964.22
2022-09-28T19:21:37.828Z,97980.78
2022-09-28T19:24:08.909Z,97979.53
2022-09-28T19:26:44.228Z,97977.09
2022-09-28T19:29:15.989Z,97966.34
2022-09-28T19:31:44.794Z,97966.16
2022-09-28T19:34:15.505Z,97967.41
2022-09-28T19:36:49.675Z,97990.72
2022-09-28T19:39:18.504Z,97982.66
2022-09-28T19:41:51.564Z,97975.63
2022-09-28T19:44:27.994Z,97977.50
2022-09-28T19:47:01.147Z,97988.66
2022-09-28T19:49:35.607Z,97978.56
2022-09-28T19:52:14.333Z,97984.53
2022-09-28T19:54:52.233Z,97993.22
2022-09-28T19:57:27.946Z,97988.47
2022-09-28T20:00:03.561Z,97991.34
2022-09-28T20:02:42.949Z,97984.09
2022-09-28T20:05:11.896Z,97978.75
2022-09-28T20:07:48.878Z,97982.66
2022-09-28T20:10:17.625Z,97985.34
2022-09-28T20:13:00.212Z,97984.94
2022-09-28T20:15:38.957Z,97991.13
2022-09-28T20:18:10.365Z,97998.56
2022-09-28T20:20:44.060Z,97987.44
2022-09-28T20:23:18.933Z,97988.88
2022-09-28T20:25:53.022Z,97991.75
2022-09-28T20:28:24.611Z,98006.41
2022-09-28T20:30:57.745Z,97994.59
2022-09-28T20:33:29.131Z,98002.69
2022-09-28T20:36:00.531Z,98009.69
2022-09-28T20:38:41.690Z,98017.75
2022-09-28T20:41:13.704Z,98017.34
2022-09-28T20:43:46.857Z,98018.13
2022-09-28T20:46:20.424Z,98018.97
2022-09-28T20:48:55.153Z,98028.03
2022-09-28T20:51:26.160Z,98026.31
2022-09-28T20:53:59.348Z,98040.25
2022-09-28T20:56:42.044Z,98042.50
2022-09-28T20:59:17.230Z,98039.81
2022-09-28T21:01:50.697Z,98032.78
2022-09-28T21:04:28.433Z,98042.31
2022-09-28T21:07:00.184Z,98028.41
2022-09-28T21:09:32.615Z,98049.28
2022-09-28T21:12:11.417Z,98042.50
2022-09-28T21:14:45.674Z,98042.09
2022-09-28T21:17:14.979Z,98048.63
2022-09-28T21:19:48.042Z,98045.13
2022-09-28T21:22:21.887Z,98041.41
2022-09-28T21:24:54.447Z,98043.25
2022-09-28T21:27:25.782Z,98048.25
2022-09-28T21:30:11.984Z,98051.94
2022-09-28T21:32:44.095Z,98063.78
2022-09-28T21:35:19.239Z,98056.53
2022-09-28T21:37:47.738Z,98054.06
2022-09-28T21:40:33.348Z,98059.59
2022-09-28T21:43:04.830Z,98046.97
2022-09-28T21:45:38.686Z,98049.59
2022-09-28T21:48:16.552Z,98060.38
2022-09-28T21:51:00.660Z,98062.44
2022-09-28T21:53:31.410Z,98062.03
2022-09-28T21:56:03.031Z,98069.44
2022-09-28T21:58:33.680Z,98070.84
2022-09-28T22:01:07.984Z,98071.44
2022-09-28T22:03:42.761Z,98066.06
2022-09-28T22:06:15.089Z,98061.31
2022-09-28T22:08:50.328Z,98065.88
2022-09-28T22:11:22.240Z,98064.31
2022-09-28T22:13:53.259Z,98065.03
2022-09-28T22:16:36.189Z,98070.00
2022-09-28T22:19:08.289Z,98081.44
2022-09-28T22:21:39.829Z,98079.75
2022-09-28T22:24:09.513Z,98075.72
2022-09-28T22:26:39.516Z,98091.19
2022-09-28T22:29:09.966Z,98091.00
2022-09-28T22:31:46.335Z,98095.91
2022-09-28T22:34:19.147Z,98092.81
2022-09-28T22:36:49.040Z,98092.31
2022-09-28T22:39:17.360Z,98094.41
2022-09-28T22:41:46.697Z,98092.25
2022-09-28T22:44:20.347Z,98095.66
2022-09-28T22:46:56.149Z,98096.50
2022-09-28T22:49:28.081Z,98098.78
2022-09-28T22:51:58.299Z,98098.13
2022-09-28T22:54:43.239Z,98094.72
2022-09-28T22:57:12.989Z,98108.19
2022-09-28T22:59:50.966Z,98115.13
2022-09-28T23:02:22.042Z,98113.56
2022-09-28T23:04:58.765Z,98120.81
2022-09-28T23:07:27.849Z,98120.03
2022-09-28T23:09:59.369Z,98128.19
2022-09-28T23:12:37.059Z,98123.63
2022-09-28T23:15:07.368Z,98138.06
2022-09-28T23:17:41.488Z,98134.72
2022-09-28T23:20:10.596Z,98140.16
2022-09-28T23:22:38.933Z,98129.75
2022-09-28T23:25:10.611Z,98135.19
2022-09-28T23:27:42.056Z,98138.75
2022-09-28T23:30:11.405Z,98140.50
2022-09-28T23:32:41.412Z,98147.84
2022-09-28T23:35:10.568Z,98146.19
2022-09-28T23:37:39.213Z,98134.38
2022-09-28T23:40:11.128Z,98139.91
2022-09-28T23:42:42.785Z,98136.94
2022-09-28T23:45:14.484Z,98135.97
2022-09-28T23:47:48.306Z,98136.69
2022-09-28T23:50:19.998Z,98136.06
2022-09-28T23:52:56.331Z,98137.59
2022-09-28T23:55:25.320Z,98142.78
2022-09-28T23:57:58.317Z,98143.53
